sensor_id;sensor_type;location;lat;lon;timestamp;P1;durP1;ratioP1;P2;durP2;ratioP2
12050;SDS011;6086;43.546;26.474;2022-07-23T00:00:34;7.77;;;2.90;;
12050;SDS011;6086;43.546;26.474;2022-07-23T00:03:01;3.03;;;2.50;;
12050;SDS011;6086;43.546;26.474;2022-07-23T00:05:29;5.50;;;3.20;;
12050;SDS011;6086;43.546;26.474;2022-07-23T00:07:56;3.33;;;2.73;;
12050;SDS011;6086;43.546;26.474;2022-07-23T00:10:23;3.40;;;3.10;;
12050;SDS011;6086;43.546;26.474;2022-07-23T00:12:50;3.37;;;3.07;;
12050;SDS011;6086;43.546;26.474;2022-07-23T00:15:17;3.03;;;2.40;;
12050;SDS011;6086;43.546;26.474;2022-07-23T00:17:44;3.67;;;2.60;;
12050;SDS011;6086;43.546;26.474;2022-07-23T00:20:11;2.77;;;2.57;;
12050;SDS011;6086;43.546;26.474;2022-07-23T00:22:46;3.20;;;2.70;;
12050;SDS011;6086;43.546;26.474;2022-07-23T00:25:13;3.63;;;2.90;;
12050;SDS011;6086;43.546;26.474;2022-07-23T00:27:40;9.77;;;3.90;;
12050;SDS011;6086;43.546;26.474;2022-07-23T00:30:08;2.50;;;2.30;;
12050;SDS011;6086;43.546;26.474;2022-07-23T00:32:44;3.13;;;2.53;;
12050;SDS011;6086;43.546;26.474;2022-07-23T00:35:12;5.10;;;2.53;;
12050;SDS011;6086;43.546;26.474;2022-07-23T00:37:38;2.33;;;2.13;;
12050;SDS011;6086;43.546;26.474;2022-07-23T00:40:08;3.77;;;2.33;;
12050;SDS011;6086;43.546;26.474;2022-07-23T00:42:36;3.13;;;2.43;;
12050;SDS011;6086;43.546;26.474;2022-07-23T00:45:03;2.63;;;2.43;;
12050;SDS011;6086;43.546;26.474;2022-07-23T00:47:31;3.00;;;2.60;;
12050;SDS011;6086;43.546;26.474;2022-07-23T00:49:58;4.23;;;2.93;;
12050;SDS011;6086;43.546;26.474;2022-07-23T00:52:26;4.20;;;2.73;;
12050;SDS011;6086;43.546;26.474;2022-07-23T00:54:53;5.30;;;3.70;;
12050;SDS011;6086;43.546;26.474;2022-07-23T00:57:21;3.43;;;2.97;;
12050;SDS011;6086;43.546;26.474;2022-07-23T00:59:48;4.20;;;2.73;;
12050;SDS011;6086;43.546;26.474;2022-07-23T01:02:15;2.87;;;2.60;;
12050;SDS011;6086;43.546;26.474;2022-07-23T01:04:42;3.10;;;2.73;;
12050;SDS011;6086;43.546;26.474;2022-07-23T01:07:09;2.70;;;2.50;;
12050;SDS011;6086;43.546;26.474;2022-07-23T01:09:36;2.87;;;2.47;;
12050;SDS011;6086;43.546;26.474;2022-07-23T01:12:04;3.90;;;3.03;;
12050;SDS011;6086;43.546;26.474;2022-07-23T01:14:33;3.23;;;2.70;;
12050;SDS011;6086;43.546;26.474;2022-07-23T01:17:00;3.13;;;2.87;;
12050;SDS011;6086;43.546;26.474;2022-07-23T01:19:27;3.87;;;3.00;;
12050;SDS011;6086;43.546;26.474;2022-07-23T01:21:54;3.33;;;2.57;;
12050;SDS011;6086;43.546;26.474;2022-07-23T01:24:26;3.37;;;2.67;;
12050;SDS011;6086;43.546;26.474;2022-07-23T01:26:53;4.00;;;2.67;;
12050;SDS011;6086;43.546;26.474;2022-07-23T01:29:20;3.40;;;2.80;;
12050;SDS011;6086;43.546;26.474;2022-07-23T01:31:48;3.53;;;2.93;;
12050;SDS011;6086;43.546;26.474;2022-07-23T01:34:14;2.63;;;2.43;;
12050;SDS011;6086;43.546;26.474;2022-07-23T01:36:41;3.37;;;3.07;;
12050;SDS011;6086;43.546;26.474;2022-07-23T01:39:08;2.77;;;2.50;;
12050;SDS011;6086;43.546;26.474;2022-07-23T01:41:37;2.70;;;2.50;;
12050;SDS011;6086;43.546;26.474;2022-07-23T01:44:04;4.90;;;3.17;;
12050;SDS011;6086;43.546;26.474;2022-07-23T01:46:31;2.80;;;2.50;;
12050;SDS011;6086;43.546;26.474;2022-07-23T01:48:58;3.23;;;2.53;;
12050;SDS011;6086;43.546;26.474;2022-07-23T01:51:25;2.60;;;2.40;;
12050;SDS011;6086;43.546;26.474;2022-07-23T01:53:51;2.77;;;2.50;;
12050;SDS011;6086;43.546;26.474;2022-07-23T01:56:18;4.40;;;2.80;;
12050;SDS011;6086;43.546;26.474;2022-07-23T01:58:47;3.20;;;2.73;;
12050;SDS011;6086;43.546;26.474;2022-07-23T02:01:14;3.07;;;2.70;;
12050;SDS011;6086;43.546;26.474;2022-07-23T02:03:41;4.00;;;2.47;;
12050;SDS011;6086;43.546;26.474;2022-07-23T02:06:08;4.17;;;2.70;;
12050;SDS011;6086;43.546;26.474;2022-07-23T02:08:35;3.30;;;3.00;;
12050;SDS011;6086;43.546;26.474;2022-07-23T02:11:02;3.10;;;2.60;;
12050;SDS011;6086;43.546;26.474;2022-07-23T02:13:29;4.00;;;2.37;;
12050;SDS011;6086;43.546;26.474;2022-07-23T02:15:57;2.97;;;2.50;;
12050;SDS011;6086;43.546;26.474;2022-07-23T02:18:37;4.83;;;2.60;;
12050;SDS011;6086;43.546;26.474;2022-07-23T02:21:04;3.23;;;2.93;;
12050;SDS011;6086;43.546;26.474;2022-07-23T02:23:31;2.83;;;2.30;;
12050;SDS011;6086;43.546;26.474;2022-07-23T02:25:58;4.73;;;2.90;;
12050;SDS011;6086;43.546;26.474;2022-07-23T02:28:25;3.20;;;2.90;;
12050;SDS011;6086;43.546;26.474;2022-07-23T02:30:51;4.33;;;2.73;;
12050;SDS011;6086;43.546;26.474;2022-07-23T02:33:20;3.13;;;2.37;;
12050;SDS011;6086;43.546;26.474;2022-07-23T02:35:47;3.70;;;2.67;;
12050;SDS011;6086;43.546;26.474;2022-07-23T02:38:14;3.53;;;2.87;;
12050;SDS011;6086;43.546;26.474;2022-07-23T02:40:41;6.30;;;2.90;;
12050;SDS011;6086;43.546;26.474;2022-07-23T02:43:08;3.73;;;2.73;;
12050;SDS011;6086;43.546;26.474;2022-07-23T02:45:35;2.90;;;2.70;;
12050;SDS011;6086;43.546;26.474;2022-07-23T02:48:02;3.80;;;2.80;;
12050;SDS011;6086;43.546;26.474;2022-07-23T02:50:30;3.70;;;2.93;;
12050;SDS011;6086;43.546;26.474;2022-07-23T02:52:57;5.47;;;2.83;;
12050;SDS011;6086;43.546;26.474;2022-07-23T02:55:24;4.40;;;3.37;;
12050;SDS011;6086;43.546;26.474;2022-07-23T02:57:51;5.20;;;4.70;;
12050;SDS011;6086;43.546;26.474;2022-07-23T03:00:18;4.13;;;3.83;;
12050;SDS011;6086;43.546;26.474;2022-07-23T03:02:45;5.00;;;4.50;;
12050;SDS011;6086;43.546;26.474;2022-07-23T03:05:12;7.63;;;5.47;;
12050;SDS011;6086;43.546;26.474;2022-07-23T03:07:42;7.63;;;5.37;;
12050;SDS011;6086;43.546;26.474;2022-07-23T03:10:08;3.97;;;3.43;;
12050;SDS011;6086;43.546;26.474;2022-07-23T03:12:36;6.47;;;3.40;;
12050;SDS011;6086;43.546;26.474;2022-07-23T03:15:03;3.60;;;3.30;;
12050;SDS011;6086;43.546;26.474;2022-07-23T03:17:30;5.30;;;3.27;;
12050;SDS011;6086;43.546;26.474;2022-07-23T03:19:57;4.93;;;3.00;;
12050;SDS011;6086;43.546;26.474;2022-07-23T03:22:24;4.93;;;3.23;;
12050;SDS011;6086;43.546;26.474;2022-07-23T03:24:52;5.00;;;2.90;;
12050;SDS011;6086;43.546;26.474;2022-07-23T03:27:19;3.67;;;2.80;;
12050;SDS011;6086;43.546;26.474;2022-07-23T03:29:57;5.20;;;3.07;;
12050;SDS011;6086;43.546;26.474;2022-07-23T03:32:25;4.17;;;3.57;;
12050;SDS011;6086;43.546;26.474;2022-07-23T03:34:53;4.70;;;3.70;;
12050;SDS011;6086;43.546;26.474;2022-07-23T03:37:20;7.53;;;4.33;;
12050;SDS011;6086;43.546;26.474;2022-07-23T03:39:47;6.40;;;4.33;;
12050;SDS011;6086;43.546;26.474;2022-07-23T03:42:15;7.87;;;6.03;;
12050;SDS011;6086;43.546;26.474;2022-07-23T03:44:42;8.67;;;6.67;;
12050;SDS011;6086;43.546;26.474;2022-07-23T03:47:09;7.40;;;5.93;;
12050;SDS011;6086;43.546;26.474;2022-07-23T03:49:36;7.93;;;5.30;;
12050;SDS011;6086;43.546;26.474;2022-07-23T03:52:03;7.50;;;5.10;;
12050;SDS011;6086;43.546;26.474;2022-07-23T03:54:30;5.60;;;5.00;;
12050;SDS011;6086;43.546;26.474;2022-07-23T03:56:57;5.67;;;4.57;;
12050;SDS011;6086;43.546;26.474;2022-07-23T03:59:25;3.97;;;2.80;;
12050;SDS011;6086;43.546;26.474;2022-07-23T04:01:52;3.00;;;2.70;;
12050;SDS011;6086;43.546;26.474;2022-07-23T04:04:19;6.47;;;3.00;;
12050;SDS011;6086;43.546;26.474;2022-07-23T04:06:46;6.97;;;3.10;;
12050;SDS011;6086;43.546;26.474;2022-07-23T04:09:13;3.37;;;2.83;;
12050;SDS011;6086;43.546;26.474;2022-07-23T04:11:40;2.90;;;2.63;;
12050;SDS011;6086;43.546;26.474;2022-07-23T04:14:07;2.80;;;2.50;;
12050;SDS011;6086;43.546;26.474;2022-07-23T04:16:36;3.10;;;2.47;;
12050;SDS011;6086;43.546;26.474;2022-07-23T04:19:03;2.60;;;2.40;;
12050;SDS011;6086;43.546;26.474;2022-07-23T04:21:30;5.00;;;2.80;;
12050;SDS011;6086;43.546;26.474;2022-07-23T04:23:57;3.83;;;2.57;;
12050;SDS011;6086;43.546;26.474;2022-07-23T04:26:23;4.97;;;2.83;;
12050;SDS011;6086;43.546;26.474;2022-07-23T04:28:50;3.30;;;3.00;;
12050;SDS011;6086;43.546;26.474;2022-07-23T04:31:17;3.37;;;2.30;;
12050;SDS011;6086;43.546;26.474;2022-07-23T04:33:46;4.27;;;2.40;;
12050;SDS011;6086;43.546;26.474;2022-07-23T04:36:13;3.40;;;2.37;;
12050;SDS011;6086;43.546;26.474;2022-07-23T04:38:40;3.00;;;2.70;;
12050;SDS011;6086;43.546;26.474;2022-07-23T04:41:07;3.23;;;2.57;;
12050;SDS011;6086;43.546;26.474;2022-07-23T04:43:34;7.03;;;2.90;;
12050;SDS011;6086;43.546;26.474;2022-07-23T04:46:00;3.17;;;2.60;;
12050;SDS011;6086;43.546;26.474;2022-07-23T04:48:29;3.87;;;2.70;;
12050;SDS011;6086;43.546;26.474;2022-07-23T04:50:57;2.90;;;2.60;;
12050;SDS011;6086;43.546;26.474;2022-07-23T04:53:24;4.37;;;2.60;;
12050;SDS011;6086;43.546;26.474;2022-07-23T04:55:51;10.27;;;3.47;;
12050;SDS011;6086;43.546;26.474;2022-07-23T04:58:18;4.23;;;2.60;;
12050;SDS011;6086;43.546;26.474;2022-07-23T05:00:45;3.37;;;2.90;;
12050;SDS011;6086;43.546;26.474;2022-07-23T05:03:12;2.90;;;2.60;;
12050;SDS011;6086;43.546;26.474;2022-07-23T05:05:39;4.00;;;2.73;;
12050;SDS011;6086;43.546;26.474;2022-07-23T05:08:08;5.30;;;2.80;;
12050;SDS011;6086;43.546;26.474;2022-07-23T05:10:34;4.97;;;4.07;;
12050;SDS011;6086;43.546;26.474;2022-07-23T05:13:01;7.70;;;3.67;;
12050;SDS011;6086;43.546;26.474;2022-07-23T05:15:28;6.00;;;3.73;;
12050;SDS011;6086;43.546;26.474;2022-07-23T05:17:55;5.07;;;3.00;;
12050;SDS011;6086;43.546;26.474;2022-07-23T05:20:22;3.20;;;2.90;;
12050;SDS011;6086;43.546;26.474;2022-07-23T05:22:49;3.33;;;2.50;;
12050;SDS011;6086;43.546;26.474;2022-07-23T05:25:17;3.27;;;2.53;;
12050;SDS011;6086;43.546;26.474;2022-07-23T05:27:45;3.03;;;2.30;;
12050;SDS011;6086;43.546;26.474;2022-07-23T05:30:15;2.90;;;2.43;;
12050;SDS011;6086;43.546;26.474;2022-07-23T05:32:42;5.63;;;2.60;;
12050;SDS011;6086;43.546;26.474;2022-07-23T05:35:09;2.87;;;2.67;;
12050;SDS011;6086;43.546;26.474;2022-07-23T05:37:36;7.80;;;2.80;;
12050;SDS011;6086;43.546;26.474;2022-07-23T05:40:03;5.07;;;3.47;;
12050;SDS011;6086;43.546;26.474;2022-07-23T05:42:34;4.70;;;3.50;;
12050;SDS011;6086;43.546;26.474;2022-07-23T05:45:01;3.00;;;2.70;;
12050;SDS011;6086;43.546;26.474;2022-07-23T05:47:28;5.00;;;2.80;;
12050;SDS011;6086;43.546;26.474;2022-07-23T05:49:54;3.07;;;2.77;;
12050;SDS011;6086;43.546;26.474;2022-07-23T05:52:21;5.67;;;3.07;;
12050;SDS011;6086;43.546;26.474;2022-07-23T05:54:48;5.23;;;2.90;;
12050;SDS011;6086;43.546;26.474;2022-07-23T05:57:15;5.07;;;4.50;;
12050;SDS011;6086;43.546;26.474;2022-07-23T05:59:43;4.43;;;3.77;;
12050;SDS011;6086;43.546;26.474;2022-07-23T06:02:10;4.47;;;2.97;;
12050;SDS011;6086;43.546;26.474;2022-07-23T06:04:37;3.40;;;2.67;;
12050;SDS011;6086;43.546;26.474;2022-07-23T06:07:04;6.13;;;2.70;;
12050;SDS011;6086;43.546;26.474;2022-07-23T06:09:31;3.87;;;2.87;;
12050;SDS011;6086;43.546;26.474;2022-07-23T06:11:58;3.53;;;2.93;;
12050;SDS011;6086;43.546;26.474;2022-07-23T06:14:25;5.43;;;2.93;;
12050;SDS011;6086;43.546;26.474;2022-07-23T06:16:53;5.63;;;3.00;;
12050;SDS011;6086;43.546;26.474;2022-07-23T06:19:20;3.23;;;2.93;;
12050;SDS011;6086;43.546;26.474;2022-07-23T06:21:47;3.53;;;3.10;;
12050;SDS011;6086;43.546;26.474;2022-07-23T06:24:14;3.50;;;2.47;;
12050;SDS011;6086;43.546;26.474;2022-07-23T06:26:40;3.33;;;2.10;;
12050;SDS011;6086;43.546;26.474;2022-07-23T06:29:07;4.47;;;2.40;;
12050;SDS011;6086;43.546;26.474;2022-07-23T06:31:34;2.60;;;2.40;;
12050;SDS011;6086;43.546;26.474;2022-07-23T06:34:03;5.70;;;3.30;;
12050;SDS011;6086;43.546;26.474;2022-07-23T06:36:30;6.07;;;4.00;;
12050;SDS011;6086;43.546;26.474;2022-07-23T06:38:56;3.40;;;2.80;;
12050;SDS011;6086;43.546;26.474;2022-07-23T06:41:23;2.70;;;2.50;;
12050;SDS011;6086;43.546;26.474;2022-07-23T06:43:50;4.00;;;3.13;;
12050;SDS011;6086;43.546;26.474;2022-07-23T06:46:17;6.43;;;3.17;;
12050;SDS011;6086;43.546;26.474;2022-07-23T06:48:44;4.23;;;2.60;;
12050;SDS011;6086;43.546;26.474;2022-07-23T06:51:12;3.33;;;2.90;;
12050;SDS011;6086;43.546;26.474;2022-07-23T06:53:39;5.27;;;2.47;;
12050;SDS011;6086;43.546;26.474;2022-07-23T06:56:06;3.40;;;2.53;;
12050;SDS011;6086;43.546;26.474;2022-07-23T06:58:33;3.93;;;2.50;;
12050;SDS011;6086;43.546;26.474;2022-07-23T07:01:00;8.40;;;4.43;;
12050;SDS011;6086;43.546;26.474;2022-07-23T07:03:27;3.10;;;2.63;;
12050;SDS011;6086;43.546;26.474;2022-07-23T07:05:54;4.47;;;2.40;;
12050;SDS011;6086;43.546;26.474;2022-07-23T07:08:24;2.73;;;2.50;;
12050;SDS011;6086;43.546;26.474;2022-07-23T07:10:51;3.83;;;2.90;;
12050;SDS011;6086;43.546;26.474;2022-07-23T07:13:17;5.00;;;3.03;;
12050;SDS011;6086;43.546;26.474;2022-07-23T07:15:44;7.43;;;3.13;;
12050;SDS011;6086;43.546;26.474;2022-07-23T07:18:11;3.30;;;2.37;;
12050;SDS011;6086;43.546;26.474;2022-07-23T07:20:38;3.17;;;2.60;;
12050;SDS011;6086;43.546;26.474;2022-07-23T07:23:05;2.57;;;2.37;;
12050;SDS011;6086;43.546;26.474;2022-07-23T07:25:34;5.50;;;2.60;;
12050;SDS011;6086;43.546;26.474;2022-07-23T07:28:02;5.00;;;2.20;;
12050;SDS011;6086;43.546;26.474;2022-07-23T07:30:29;2.90;;;2.20;;
12050;SDS011;6086;43.546;26.474;2022-07-23T07:32:56;3.80;;;2.33;;
12050;SDS011;6086;43.546;26.474;2022-07-23T07:35:23;4.37;;;2.30;;
12050;SDS011;6086;43.546;26.474;2022-07-23T07:37:50;3.10;;;2.53;;
12050;SDS011;6086;43.546;26.474;2022-07-23T07:40:17;4.37;;;2.17;;
12050;SDS011;6086;43.546;26.474;2022-07-23T07:42:47;2.43;;;2.13;;
12050;SDS011;6086;43.546;26.474;2022-07-23T07:45:14;3.37;;;2.20;;
12050;SDS011;6086;43.546;26.474;2022-07-23T07:47:41;4.20;;;2.60;;
12050;SDS011;6086;43.546;26.474;2022-07-23T07:50:09;2.20;;;2.00;;
12050;SDS011;6086;43.546;26.474;2022-07-23T07:52:36;3.00;;;2.70;;
12050;SDS011;6086;43.546;26.474;2022-07-23T07:55:03;2.40;;;2.20;;
12050;SDS011;6086;43.546;26.474;2022-07-23T07:57:30;2.77;;;2.20;;
12050;SDS011;6086;43.546;26.474;2022-07-23T07:59:59;6.03;;;2.43;;
12050;SDS011;6086;43.546;26.474;2022-07-23T08:02:26;3.53;;;2.20;;
12050;SDS011;6086;43.546;26.474;2022-07-23T08:04:53;5.03;;;2.00;;
12050;SDS011;6086;43.546;26.474;2022-07-23T08:07:22;4.60;;;2.50;;
12050;SDS011;6086;43.546;26.474;2022-07-23T08:09:49;3.60;;;2.20;;
12050;SDS011;6086;43.546;26.474;2022-07-23T08:12:16;3.10;;;2.40;;
12050;SDS011;6086;43.546;26.474;2022-07-23T08:14:43;2.47;;;2.07;;
12050;SDS011;6086;43.546;26.474;2022-07-23T08:17:11;4.17;;;2.13;;
12050;SDS011;6086;43.546;26.474;2022-07-23T08:19:38;3.60;;;2.40;;
12050;SDS011;6086;43.546;26.474;2022-07-23T08:22:05;3.87;;;2.40;;
12050;SDS011;6086;43.546;26.474;2022-07-23T08:24:32;3.60;;;2.50;;
12050;SDS011;6086;43.546;26.474;2022-07-23T08:26:59;2.43;;;2.23;;
12050;SDS011;6086;43.546;26.474;2022-07-23T08:29:26;4.77;;;2.70;;
12050;SDS011;6086;43.546;26.474;2022-07-23T08:31:53;3.17;;;2.10;;
12050;SDS011;6086;43.546;26.474;2022-07-23T08:34:21;2.30;;;2.10;;
12050;SDS011;6086;43.546;26.474;2022-07-23T08:36:48;3.20;;;2.10;;
12050;SDS011;6086;43.546;26.474;2022-07-23T08:39:15;2.33;;;2.13;;
12050;SDS011;6086;43.546;26.474;2022-07-23T08:41:42;3.80;;;2.23;;
12050;SDS011;6086;43.546;26.474;2022-07-23T08:44:09;2.97;;;2.43;;
12050;SDS011;6086;43.546;26.474;2022-07-23T08:46:36;2.63;;;2.43;;
12050;SDS011;6086;43.546;26.474;2022-07-23T08:49:05;4.73;;;2.47;;
12050;SDS011;6086;43.546;26.474;2022-07-23T08:51:34;3.00;;;2.40;;
12050;SDS011;6086;43.546;26.474;2022-07-23T08:54:01;4.07;;;2.60;;
12050;SDS011;6086;43.546;26.474;2022-07-23T08:56:29;3.77;;;2.60;;
12050;SDS011;6086;43.546;26.474;2022-07-23T08:58:56;3.17;;;2.63;;
12050;SDS011;6086;43.546;26.474;2022-07-23T09:01:23;3.10;;;2.60;;
12050;SDS011;6086;43.546;26.474;2022-07-23T09:03:50;3.03;;;2.73;;
12050;SDS011;6086;43.546;26.474;2022-07-23T09:06:17;2.60;;;2.40;;
12050;SDS011;6086;43.546;26.474;2022-07-23T09:08:46;3.40;;;2.50;;
12050;SDS011;6086;43.546;26.474;2022-07-23T09:11:13;3.37;;;2.77;;
12050;SDS011;6086;43.546;26.474;2022-07-23T09:13:45;2.67;;;2.27;;
12050;SDS011;6086;43.546;26.474;2022-07-23T09:16:13;2.67;;;2.47;;
12050;SDS011;6086;43.546;26.474;2022-07-23T09:19:04;3.50;;;3.20;;
12050;SDS011;6086;43.546;26.474;2022-07-23T09:21:33;5.43;;;3.50;;
12050;SDS011;6086;43.546;26.474;2022-07-23T09:24:03;3.47;;;3.13;;
12050;SDS011;6086;43.546;26.474;2022-07-23T09:26:32;4.87;;;2.80;;
12050;SDS011;6086;43.546;26.474;2022-07-23T09:29:06;4.43;;;3.00;;
12050;SDS011;6086;43.546;26.474;2022-07-23T09:31:42;3.93;;;2.63;;
12050;SDS011;6086;43.546;26.474;2022-07-23T09:34:12;3.17;;;2.87;;
12050;SDS011;6086;43.546;26.474;2022-07-23T09:36:41;3.00;;;2.70;;
12050;SDS011;6086;43.546;26.474;2022-07-23T09:39:10;2.90;;;2.70;;
12050;SDS011;6086;43.546;26.474;2022-07-23T09:41:39;3.03;;;2.73;;
12050;SDS011;6086;43.546;26.474;2022-07-23T09:44:09;2.87;;;2.50;;
12050;SDS011;6086;43.546;26.474;2022-07-23T09:46:38;4.67;;;2.30;;
12050;SDS011;6086;43.546;26.474;2022-07-23T09:49:16;3.87;;;2.20;;
12050;SDS011;6086;43.546;26.474;2022-07-23T09:51:44;3.03;;;2.73;;
12050;SDS011;6086;43.546;26.474;2022-07-23T09:54:25;4.57;;;3.10;;
12050;SDS011;6086;43.546;26.474;2022-07-23T09:56:58;3.83;;;2.40;;
12050;SDS011;6086;43.546;26.474;2022-07-23T09:59:27;4.80;;;2.90;;
12050;SDS011;6086;43.546;26.474;2022-07-23T10:01:56;4.43;;;3.17;;
12050;SDS011;6086;43.546;26.474;2022-07-23T10:04:25;4.83;;;3.03;;
12050;SDS011;6086;43.546;26.474;2022-07-23T10:06:54;4.13;;;2.83;;
12050;SDS011;6086;43.546;26.474;2022-07-23T10:09:23;2.83;;;2.63;;
12050;SDS011;6086;43.546;26.474;2022-07-23T10:11:57;4.03;;;2.80;;
12050;SDS011;6086;43.546;26.474;2022-07-23T10:14:29;2.93;;;2.50;;
12050;SDS011;6086;43.546;26.474;2022-07-23T10:16:58;3.03;;;2.73;;
12050;SDS011;6086;43.546;26.474;2022-07-23T10:19:25;4.47;;;2.60;;
12050;SDS011;6086;43.546;26.474;2022-07-23T10:21:55;3.03;;;2.83;;
12050;SDS011;6086;43.546;26.474;2022-07-23T10:27:23;7.43;;;2.80;;
12050;SDS011;6086;43.546;26.474;2022-07-23T10:30:12;3.77;;;2.80;;
12050;SDS011;6086;43.546;26.474;2022-07-23T10:32:49;3.40;;;2.73;;
12050;SDS011;6086;43.546;26.474;2022-07-23T10:35:29;2.90;;;2.70;;
12050;SDS011;6086;43.546;26.474;2022-07-23T10:38:06;3.00;;;2.70;;
12050;SDS011;6086;43.546;26.474;2022-07-23T10:40:50;3.07;;;2.80;;
12050;SDS011;6086;43.546;26.474;2022-07-23T10:43:21;4.47;;;2.67;;
12050;SDS011;6086;43.546;26.474;2022-07-23T10:45:48;3.40;;;2.57;;
12050;SDS011;6086;43.546;26.474;2022-07-23T10:48:16;3.30;;;3.00;;
12050;SDS011;6086;43.546;26.474;2022-07-23T10:50:44;3.87;;;2.80;;
12050;SDS011;6086;43.546;26.474;2022-07-23T10:53:53;3.37;;;3.07;;
12050;SDS011;6086;43.546;26.474;2022-07-23T10:59:32;4.40;;;3.23;;
12050;SDS011;6086;43.546;26.474;2022-07-23T11:02:37;4.00;;;3.00;;
12050;SDS011;6086;43.546;26.474;2022-07-23T11:05:06;3.57;;;2.90;;
12050;SDS011;6086;43.546;26.474;2022-07-23T11:07:35;3.10;;;2.83;;
12050;SDS011;6086;43.546;26.474;2022-07-23T11:10:02;3.93;;;3.10;;
12050;SDS011;6086;43.546;26.474;2022-07-23T11:12:35;4.27;;;3.10;;
12050;SDS011;6086;43.546;26.474;2022-07-23T11:15:05;3.30;;;3.10;;
12050;SDS011;6086;43.546;26.474;2022-07-23T11:17:35;4.87;;;3.43;;
12050;SDS011;6086;43.546;26.474;2022-07-23T11:22:55;4.50;;;3.47;;
12050;SDS011;6086;43.546;26.474;2022-07-23T11:25:34;3.20;;;2.83;;
12050;SDS011;6086;43.546;26.474;2022-07-23T11:28:11;2.93;;;2.60;;
12050;SDS011;6086;43.546;26.474;2022-07-23T11:30:41;3.17;;;2.87;;
12050;SDS011;6086;43.546;26.474;2022-07-23T11:33:16;4.13;;;2.87;;
12050;SDS011;6086;43.546;26.474;2022-07-23T11:35:48;3.73;;;2.70;;
12050;SDS011;6086;43.546;26.474;2022-07-23T11:38:27;2.80;;;2.60;;
12050;SDS011;6086;43.546;26.474;2022-07-23T11:40:57;4.60;;;3.10;;
12050;SDS011;6086;43.546;26.474;2022-07-23T11:43:26;3.40;;;3.10;;
12050;SDS011;6086;43.546;26.474;2022-07-23T11:45:56;5.83;;;3.13;;
12050;SDS011;6086;43.546;26.474;2022-07-23T11:48:24;4.93;;;3.10;;
12050;SDS011;6086;43.546;26.474;2022-07-23T11:50:53;3.27;;;2.83;;
12050;SDS011;6086;43.546;26.474;2022-07-23T11:53:21;3.80;;;2.83;;
12050;SDS011;6086;43.546;26.474;2022-07-23T11:55:49;3.33;;;2.50;;
12050;SDS011;6086;43.546;26.474;2022-07-23T11:58:16;3.50;;;3.20;;
12050;SDS011;6086;43.546;26.474;2022-07-23T12:00:44;3.73;;;2.90;;
12050;SDS011;6086;43.546;26.474;2022-07-23T12:03:11;4.10;;;3.33;;
12050;SDS011;6086;43.546;26.474;2022-07-23T12:05:39;4.10;;;2.83;;
12050;SDS011;6086;43.546;26.474;2022-07-23T12:08:07;7.50;;;3.40;;
12050;SDS011;6086;43.546;26.474;2022-07-23T12:10:35;3.63;;;3.20;;
12050;SDS011;6086;43.546;26.474;2022-07-23T12:13:03;3.70;;;2.90;;
12050;SDS011;6086;43.546;26.474;2022-07-23T12:15:34;3.63;;;3.17;;
12050;SDS011;6086;43.546;26.474;2022-07-23T12:18:06;3.30;;;2.83;;
12050;SDS011;6086;43.546;26.474;2022-07-23T12:20:36;4.73;;;3.40;;
12050;SDS011;6086;43.546;26.474;2022-07-23T12:23:07;5.87;;;3.57;;
12050;SDS011;6086;43.546;26.474;2022-07-23T12:25:36;5.47;;;3.30;;
12050;SDS011;6086;43.546;26.474;2022-07-23T12:28:05;7.13;;;3.50;;
12050;SDS011;6086;43.546;26.474;2022-07-23T12:30:34;3.63;;;3.33;;
12050;SDS011;6086;43.546;26.474;2022-07-23T12:33:06;3.60;;;3.23;;
12050;SDS011;6086;43.546;26.474;2022-07-23T12:35:37;4.00;;;3.03;;
12050;SDS011;6086;43.546;26.474;2022-07-23T12:38:07;5.47;;;3.43;;
12050;SDS011;6086;43.546;26.474;2022-07-23T12:40:36;5.93;;;3.40;;
12050;SDS011;6086;43.546;26.474;2022-07-23T12:43:09;3.73;;;3.00;;
12050;SDS011;6086;43.546;26.474;2022-07-23T12:45:47;4.10;;;3.03;;
12050;SDS011;6086;43.546;26.474;2022-07-23T12:48:18;5.83;;;3.00;;
12050;SDS011;6086;43.546;26.474;2022-07-23T12:50:52;3.80;;;3.40;;
12050;SDS011;6086;43.546;26.474;2022-07-23T12:53:21;3.80;;;3.30;;
12050;SDS011;6086;43.546;26.474;2022-07-23T12:55:50;3.50;;;3.20;;
12050;SDS011;6086;43.546;26.474;2022-07-23T12:58:23;4.10;;;3.40;;
12050;SDS011;6086;43.546;26.474;2022-07-23T13:01:00;5.60;;;3.57;;
12050;SDS011;6086;43.546;26.474;2022-07-23T13:03:38;5.40;;;3.70;;
12050;SDS011;6086;43.546;26.474;2022-07-23T13:06:07;6.30;;;3.40;;
12050;SDS011;6086;43.546;26.474;2022-07-23T13:08:36;5.80;;;3.40;;
12050;SDS011;6086;43.546;26.474;2022-07-23T13:11:05;4.83;;;3.13;;
12050;SDS011;6086;43.546;26.474;2022-07-23T13:13:33;4.20;;;3.27;;
12050;SDS011;6086;43.546;26.474;2022-07-23T13:16:01;4.27;;;2.97;;
12050;SDS011;6086;43.546;26.474;2022-07-23T13:18:36;5.10;;;3.30;;
12050;SDS011;6086;43.546;26.474;2022-07-23T13:21:04;5.53;;;3.10;;
12050;SDS011;6086;43.546;26.474;2022-07-23T13:23:31;4.60;;;3.30;;
12050;SDS011;6086;43.546;26.474;2022-07-23T13:25:59;3.33;;;3.03;;
12050;SDS011;6086;43.546;26.474;2022-07-23T13:28:26;3.90;;;3.20;;
12050;SDS011;6086;43.546;26.474;2022-07-23T13:30:55;6.57;;;3.77;;
12050;SDS011;6086;43.546;26.474;2022-07-23T13:33:23;6.17;;;3.67;;
12050;SDS011;6086;43.546;26.474;2022-07-23T13:35:52;5.87;;;3.70;;
12050;SDS011;6086;43.546;26.474;2022-07-23T13:38:21;6.93;;;3.50;;
12050;SDS011;6086;43.546;26.474;2022-07-23T13:40:49;6.10;;;3.47;;
12050;SDS011;6086;43.546;26.474;2022-07-23T13:43:17;4.53;;;3.17;;
12050;SDS011;6086;43.546;26.474;2022-07-23T13:45:46;6.37;;;3.27;;
12050;SDS011;6086;43.546;26.474;2022-07-23T13:48:13;7.70;;;4.10;;
12050;SDS011;6086;43.546;26.474;2022-07-23T13:50:41;4.70;;;3.13;;
12050;SDS011;6086;43.546;26.474;2022-07-23T13:53:11;3.43;;;3.13;;
12050;SDS011;6086;43.546;26.474;2022-07-23T13:55:39;4.00;;;3.40;;
12050;SDS011;6086;43.546;26.474;2022-07-23T13:58:07;7.47;;;3.60;;
12050;SDS011;6086;43.546;26.474;2022-07-23T14:00:37;6.53;;;3.07;;
12050;SDS011;6086;43.546;26.474;2022-07-23T14:03:15;3.97;;;3.57;;
12050;SDS011;6086;43.546;26.474;2022-07-23T14:05:42;10.27;;;3.53;;
12050;SDS011;6086;43.546;26.474;2022-07-23T14:08:10;4.37;;;3.43;;
12050;SDS011;6086;43.546;26.474;2022-07-23T14:10:38;3.87;;;3.30;;
12050;SDS011;6086;43.546;26.474;2022-07-23T14:13:05;4.68;;;3.67;;
12050;SDS011;6086;43.546;26.474;2022-07-23T14:15:32;20.17;;;5.30;;
12050;SDS011;6086;43.546;26.474;2022-07-23T14:17:59;6.37;;;3.43;;
12050;SDS011;6086;43.546;26.474;2022-07-23T14:20:26;3.87;;;3.27;;
12050;SDS011;6086;43.546;26.474;2022-07-23T14:22:54;5.35;;;3.10;;
12050;SDS011;6086;43.546;26.474;2022-07-23T14:25:24;4.77;;;4.07;;
12050;SDS011;6086;43.546;26.474;2022-07-23T14:27:51;4.43;;;3.30;;
12050;SDS011;6086;43.546;26.474;2022-07-23T14:30:18;5.80;;;3.83;;
12050;SDS011;6086;43.546;26.474;2022-07-23T14:32:45;4.93;;;3.55;;
12050;SDS011;6086;43.546;26.474;2022-07-23T14:35:12;7.20;;;3.60;;
12050;SDS011;6086;43.546;26.474;2022-07-23T14:37:39;6.73;;;3.47;;
12050;SDS011;6086;43.546;26.474;2022-07-23T14:40:06;6.47;;;3.42;;
12050;SDS011;6086;43.546;26.474;2022-07-23T14:42:34;5.30;;;3.47;;
12050;SDS011;6086;43.546;26.474;2022-07-23T14:45:02;5.97;;;3.10;;
12050;SDS011;6086;43.546;26.474;2022-07-23T14:47:30;4.80;;;3.42;;
12050;SDS011;6086;43.546;26.474;2022-07-23T14:49:57;6.97;;;3.47;;
12050;SDS011;6086;43.546;26.474;2022-07-23T14:52:24;7.57;;;3.50;;
12050;SDS011;6086;43.546;26.474;2022-07-23T14:54:51;4.10;;;3.57;;
12050;SDS011;6086;43.546;26.474;2022-07-23T14:57:18;5.60;;;3.42;;
12050;SDS011;6086;43.546;26.474;2022-07-23T14:59:46;5.67;;;4.17;;
12050;SDS011;6086;43.546;26.474;2022-07-23T15:02:13;3.67;;;3.20;;
12050;SDS011;6086;43.546;26.474;2022-07-23T15:04:40;5.73;;;3.73;;